Time;durP1;ratioP1;P1;durP2;ratioP2;P2;SDS_P1;SDS_P2;PMS_P1;PMS_P2;Temp;Humidity;BMP_temperature;BMP_pressure;BME280_temperature;BME280_humidity;BME280_pressure;Samples;Min_cycle;Max_cycle;Signal;HPM_P1;HPM_P2
2023/06/14 00:04:51;;;;;;;8.65;5.40;;;;;;;;;;10066650;29;20047;-65
2023/06/14 00:09:47;;;;;;;8.18;5.05;;;;;;;;;;10064175;28;20074;-64
2023/06/14 00:14:43;;;;;;;7.35;5.28;;;;;;;;;;10064239;29;20055;-66
2023/06/14 00:19:40;;;;;;;7.10;4.85;;;;;;;;;;10062437;29;20058;-65
2023/06/14 00:24:36;;;;;;;5.82;4.38;;;;;;;;;;10063164;29;20040;-65
2023/06/14 00:29:32;;;;;;;7.05;5.18;;;;;;;;;;10042742;29;20499;-65
2023/06/14 00:34:29;;;;;;;7.55;5.32;;;;;;;;;;10061674;29;20549;-65
2023/06/14 00:39:25;;;;;;;10.98;5.15;;;;;;;;;;10065802;29;20059;-65
2023/06/14 00:44:21;;;;;;;7.18;5.40;;;;;;;;;;10064984;29;20043;-64
2023/06/14 00:49:19;;;;;;;6.55;5.22;;;;;;;;;;10065874;29;20077;-64
2023/06/14 00:54:15;;;;;;;7.47;5.15;;;;;;;;;;10069555;29;20051;-63
2023/06/14 00:59:15;;;;;;;5.65;4.90;;;;;;;;;;10063073;28;20055;-65
2023/06/14 01:04:11;;;;;;;7.80;4.90;;;;;;;;;;10021584;29;20044;-65
2023/06/14 01:09:18;;;;;;;6.35;5.07;;;;;;;;;;10057323;28;20498;-64
2023/06/14 01:14:16;;;;;;;8.20;4.70;;;;;;;;;;10060032;28;20050;-66
2023/06/14 01:19:14;;;;;;;4.95;4.38;;;;;;;;;;10054395;28;20506;-66
2023/06/14 01:24:11;;;;;;;9.43;4.95;;;;;;;;;;10055640;28;20043;-66
2023/06/14 01:29:08;;;;;;;8.57;4.80;;;;;;;;;;10015547;29;20522;-66
2023/06/14 01:34:04;;;;;;;6.45;4.85;;;;;;;;;;10028677;29;20106;-65
2023/06/14 01:39:01;;;;;;;7.85;4.88;;;;;;;;;;10063874;29;20051;-66
2023/06/14 01:43:58;;;;;;;5.70;4.57;;;;;;;;;;10063728;29;20051;-66
2023/06/14 01:48:54;;;;;;;6.38;4.50;;;;;;;;;;10056905;29;20743;-66
2023/06/14 01:53:50;;;;;;;6.82;4.72;;;;;;;;;;10063428;29;20050;-66
2023/06/14 01:58:48;;;;;;;8.80;5.22;;;;;;;;;;10067508;29;20725;-66
2023/06/14 02:03:44;;;;;;;9.10;5.40;;;;;;;;;;10065939;29;20118;-67
2023/06/14 02:08:41;;;;;;;8.00;5.10;;;;;;;;;;10069095;29;20793;-66
2023/06/14 02:13:37;;;;;;;7.78;4.90;;;;;;;;;;10065313;29;20047;-66
2023/06/14 02:18:34;;;;;;;6.50;4.80;;;;;;;;;;10073125;28;20098;-66
2023/06/14 02:23:31;;;;;;;7.43;5.22;;;;;;;;;;10070122;29;20412;-66
2023/06/14 02:28:30;;;;;;;6.93;5.00;;;;;;;;;;10065920;29;20040;-67
2023/06/14 02:33:27;;;;;;;6.30;4.82;;;;;;;;;;10065408;29;20114;-66
2023/06/14 02:38:24;;;;;;;6.32;4.95;;;;;;;;;;10072544;29;20043;-66
2023/06/14 02:43:20;;;;;;;6.35;5.15;;;;;;;;;;10045201;29;20046;-65
2023/06/14 02:48:16;;;;;;;8.82;5.85;;;;;;;;;;10065218;29;20138;-64
2023/06/14 02:53:13;;;;;;;6.28;5.55;;;;;;;;;;10064816;29;20098;-66
2023/06/14 02:58:09;;;;;;;6.50;5.68;;;;;;;;;;10068486;28;20417;-65
2023/06/14 03:03:13;;;;;;;6.63;5.72;;;;;;;;;;10072074;29;20043;-66
2023/06/14 03:08:10;;;;;;;6.93;5.70;;;;;;;;;;10069182;29;20082;-66
2023/06/14 03:13:11;;;;;;;6.57;5.25;;;;;;;;;;10071824;29;20509;-64
2023/06/14 03:18:08;;;;;;;8.13;6.38;;;;;;;;;;10053992;28;20521;-64
2023/06/14 03:23:05;;;;;;;7.82;6.32;;;;;;;;;;10066302;28;20146;-64
2023/06/14 03:28:02;;;;;;;8.38;6.35;;;;;;;;;;10063890;28;20043;-66
2023/06/14 03:33:00;;;;;;;8.20;7.40;;;;;;;;;;10064955;29;20097;-68
2023/06/14 03:37:57;;;;;;;8.40;6.88;;;;;;;;;;10064558;29;20047;-68
2023/06/14 03:42:54;;;;;;;9.52;7.07;;;;;;;;;;10070986;29;20132;-68
2023/06/14 03:47:50;;;;;;;12.45;7.68;;;;;;;;;;10059714;29;20043;-68
2023/06/14 03:52:48;;;;;;;9.63;7.65;;;;;;;;;;10058630;29;20058;-67
2023/06/14 03:57:45;;;;;;;8.52;7.60;;;;;;;;;;10060925;28;20070;-68
2023/06/14 04:02:41;;;;;;;9.18;7.90;;;;;;;;;;10049407;29;20070;-67
2023/06/14 04:07:44;;;;;;;8.55;7.75;;;;;;;;;;10064707;29;20131;-68
2023/06/14 04:12:41;;;;;;;11.45;7.57;;;;;;;;;;10048133;29;20517;-68
2023/06/14 04:17:39;;;;;;;9.40;8.20;;;;;;;;;;10064747;28;20556;-67
2023/06/14 04:22:36;;;;;;;8.43;7.63;;;;;;;;;;10063057;29;20067;-67
2023/06/14 04:27:35;;;;;;;9.82;8.80;;;;;;;;;;10068923;29;20494;-68
2023/06/14 04:32:33;;;;;;;12.98;9.23;;;;;;;;;;10066872;28;20048;-67
2023/06/14 04:37:31;;;;;;;13.68;8.95;;;;;;;;;;10068073;28;20502;-69
2023/06/14 04:42:30;;;;;;;13.30;9.05;;;;;;;;;;10070958;28;20407;-68
2023/06/14 04:47:29;;;;;;;9.00;8.15;;;;;;;;;;10069639;29;20044;-68
2023/06/14 04:52:26;;;;;;;10.38;9.48;;;;;;;;;;10066788;29;20055;-68
2023/06/14 04:57:25;;;;;;;11.27;10.27;;;;;;;;;;10072534;29;20065;-68
2023/06/14 05:02:23;;;;;;;10.98;10.10;;;;;;;;;;10066422;28;20074;-69
2023/06/14 05:07:20;;;;;;;11.73;10.52;;;;;;;;;;10067605;29;20098;-68
2023/06/14 05:12:18;;;;;;;11.90;10.75;;;;;;;;;;10056006;28;20560;-69
2023/06/14 05:17:16;;;;;;;10.85;9.88;;;;;;;;;;10072001;29;20090;-68
2023/06/14 05:22:13;;;;;;;11.73;10.63;;;;;;;;;;10074546;29;20514;-68
2023/06/14 05:27:09;;;;;;;11.60;10.45;;;;;;;;;;10076238;29;20501;-68
2023/06/14 05:32:05;;;;;;;10.65;9.60;;;;;;;;;;10066242;28;20047;-68
2023/06/14 05:37:03;;;;;;;11.18;10.18;;;;;;;;;;10071647;29;20078;-68
2023/06/14 05:42:00;;;;;;;11.90;10.27;;;;;;;;;;10069019;28;20039;-68
2023/06/14 05:46:56;;;;;;;10.73;9.65;;;;;;;;;;10070130;29;20035;-68
2023/06/14 05:51:52;;;;;;;12.05;9.38;;;;;;;;;;10072252;28;20097;-69
2023/06/14 05:56:51;;;;;;;10.00;9.20;;;;;;;;;;10071871;29;20106;-69
2023/06/14 06:01:48;;;;;;;9.43;8.57;;;;;;;;;;10075595;29;20066;-71
2023/06/14 06:06:45;;;;;;;10.50;9.48;;;;;;;;;;10068762;29;20268;-68
2023/06/14 06:11:41;;;;;;;10.27;8.57;;;;;;;;;;10073994;28;20039;-67
2023/06/14 06:16:48;;;;;;;9.85;8.68;;;;;;;;;;10071909;29;20055;-68
2023/06/14 06:21:44;;;;;;;9.73;7.88;;;;;;;;;;10067323;29;20043;-70
2023/06/14 06:26:40;;;;;;;8.88;8.05;;;;;;;;;;10073216;29;20067;-70
2023/06/14 06:31:37;;;;;;;9.38;8.57;;;;;;;;;;10073523;29;20047;-68
2023/06/14 06:36:33;;;;;;;9.60;8.48;;;;;;;;;;10067953;29;20043;-70
2023/06/14 06:41:31;;;;;;;8.77;8.07;;;;;;;;;;10044607;29;20050;-68
2023/06/14 06:46:27;;;;;;;8.95;8.07;;;;;;;;;;10072110;29;20630;-68
2023/06/14 06:51:23;;;;;;;8.07;7.32;;;;;;;;;;10068289;28;20502;-68
2023/06/14 06:56:22;;;;;;;8.63;7.15;;;;;;;;;;10065496;29;20062;-68
2023/06/14 07:01:19;;;;;;;8.63;7.75;;;;;;;;;;10058877;29;20079;-68
2023/06/14 07:06:18;;;;;;;7.85;7.25;;;;;;;;;;10070539;29;20039;-68
2023/06/14 07:11:15;;;;;;;7.10;6.40;;;;;;;;;;10065332;29;20457;-68
2023/06/14 07:16:11;;;;;;;7.40;6.80;;;;;;;;;;10057986;28;20051;-69
2023/06/14 07:21:08;;;;;;;7.68;5.85;;;;;;;;;;10067795;28;21299;-68
2023/06/14 07:26:04;;;;;;;6.65;5.65;;;;;;;;;;10064836;29;20102;-68
2023/06/14 07:31:01;;;;;;;7.55;6.78;;;;;;;;;;10065768;29;20039;-68
2023/06/14 07:35:57;;;;;;;6.43;5.82;;;;;;;;;;10067375;29;20039;-69
2023/06/14 07:40:54;;;;;;;6.65;5.22;;;;;;;;;;10063071;29;20043;-69
2023/06/14 07:45:50;;;;;;;6.72;6.10;;;;;;;;;;10069861;28;20050;-68
2023/06/14 07:51:02;;;;;;;7.10;6.40;;;;;;;;;;10066611;29;20527;-69
2023/06/14 07:55:59;;;;;;;6.53;5.93;;;;;;;;;;10063264;29;20101;-68
2023/06/14 08:00:56;;;;;;;5.95;5.45;;;;;;;;;;10071787;28;20043;-68
2023/06/14 08:05:52;;;;;;;6.95;6.35;;;;;;;;;;10069990;29;20202;-69
2023/06/14 08:10:48;;;;;;;6.57;5.97;;;;;;;;;;10069723;29;20051;-69
2023/06/14 08:15:45;;;;;;;8.40;6.30;;;;;;;;;;10068237;29;20051;-69
2023/06/14 08:20:41;;;;;;;7.10;6.40;;;;;;;;;;10069296;28;20138;-69
2023/06/14 08:25:37;;;;;;;6.13;5.57;;;;;;;;;;10064447;29;20055;-69
2023/06/14 08:30:34;;;;;;;6.20;5.60;;;;;;;;;;10067308;29;20086;-69
2023/06/14 08:35:30;;;;;;;6.15;5.63;;;;;;;;;;10060980;29;20094;-69
2023/06/14 08:40:26;;;;;;;6.97;6.28;;;;;;;;;;10066912;29;20055;-69
2023/06/14 08:45:23;;;;;;;6.63;5.93;;;;;;;;;;10065784;29;20047;-69
2023/06/14 08:50:30;;;;;;;9.15;6.32;;;;;;;;;;10069867;28;20077;-69
2023/06/14 08:55:29;;;;;;;7.13;6.43;;;;;;;;;;10067122;29;20043;-69
2023/06/14 09:00:30;;;;;;;8.43;5.90;;;;;;;;;;10063388;28;20078;-69
2023/06/14 09:05:27;;;;;;;6.30;5.80;;;;;;;;;;10061180;29;20059;-69
2023/06/14 09:10:25;;;;;;;7.28;6.57;;;;;;;;;;10059115;29;20052;-69
2023/06/14 09:15:22;;;;;;;14.20;6.57;;;;;;;;;;10065196;29;20044;-69
2023/06/14 09:20:19;;;;;;;6.97;6.38;;;;;;;;;;10060524;28;20107;-69
2023/06/14 09:25:16;;;;;;;7.50;5.95;;;;;;;;;;10069028;28;20050;-70
2023/06/14 09:30:32;;;;;;;11.00;6.40;;;;;;;;;;10066531;28;20071;-69
2023/06/14 09:35:30;;;;;;;8.95;6.82;;;;;;;;;;10072475;29;20043;-70
2023/06/14 09:40:27;;;;;;;7.20;6.50;;;;;;;;;;10072003;28;20047;-69
2023/06/14 09:45:23;;;;;;;11.52;6.18;;;;;;;;;;10070376;29;20414;-69
2023/06/14 09:50:20;;;;;;;9.15;6.15;;;;;;;;;;10069869;29;20070;-69
2023/06/14 09:55:18;;;;;;;5.85;5.25;;;;;;;;;;10074489;29;20051;-70
2023/06/14 10:00:15;;;;;;;13.50;6.35;;;;;;;;;;10069849;29;20043;-69
2023/06/14 10:05:12;;;;;;;8.60;5.68;;;;;;;;;;10073433;29;20079;-69
2023/06/14 10:10:09;;;;;;;7.53;5.50;;;;;;;;;;10074023;29;20493;-69
2023/06/14 10:15:08;;;;;;;7.25;6.53;;;;;;;;;;10063010;29;20062;-70
2023/06/14 10:20:24;;;;;;;8.43;6.10;;;;;;;;;;10067339;29;20047;-70
2023/06/14 10:25:30;;;;;;;8.35;6.13;;;;;;;;;;10068810;29;20062;-69
2023/06/14 10:30:27;;;;;;;11.85;6.45;;;;;;;;;;10074611;29;20433;-70
2023/06/14 10:35:23;;;;;;;8.90;6.63;;;;;;;;;;10065121;28;20059;-69
2023/06/14 10:40:33;;;;;;;6.55;5.82;;;;;;;;;;10071769;28;20110;-70
2023/06/14 10:45:29;;;;;;;9.23;6.38;;;;;;;;;;10069358;29;20130;-69
2023/06/14 10:50:27;;;;;;;7.63;6.72;;;;;;;;;;10055914;29;20050;-70
2023/06/14 10:55:24;;;;;;;10.88;7.40;;;;;;;;;;10062052;28;20047;-70
2023/06/14 11:00:22;;;;;;;6.88;6.28;;;;;;;;;;10071346;29;20043;-69
2023/06/14 11:05:23;;;;;;;7.50;6.80;;;;;;;;;;10067413;29;20665;-69
2023/06/14 11:10:39;;;;;;;8.43;6.20;;;;;;;;;;10069189;28;20094;-69
2023/06/14 11:15:37;;;;;;;7.30;6.60;;;;;;;;;;10068881;29;20106;-69
2023/06/14 11:20:35;;;;;;;7.60;6.85;;;;;;;;;;10068236;29;20047;-69
2023/06/14 11:25:31;;;;;;;8.25;6.88;;;;;;;;;;10069672;29;20523;-69
2023/06/14 11:30:27;;;;;;;8.02;7.22;;;;;;;;;;10067773;28;20517;-69
2023/06/14 11:35:25;;;;;;;8.40;7.43;;;;;;;;;;10061373;28;20043;-69
2023/06/14 11:40:23;;;;;;;8.98;7.00;;;;;;;;;;10065464;28;20056;-69
2023/06/14 11:45:19;;;;;;;8.63;6.95;;;;;;;;;;10069916;29;20059;-69
2023/06/14 11:50:16;;;;;;;8.10;6.07;;;;;;;;;;10069627;28;20050;-69
2023/06/14 11:55:12;;;;;;;8.70;6.57;;;;;;;;;;10051609;29;20055;-69
2023/06/14 12:00:12;;;;;;;7.22;6.53;;;;;;;;;;10069681;29;20055;-70
2023/06/14 12:05:10;;;;;;;9.57;7.82;;;;;;;;;;10064345;29;20115;-69
2023/06/14 12:10:08;;;;;;;7.40;6.78;;;;;;;;;;10069071;29;20043;-69
2023/06/14 12:15:06;;;;;;;7.70;7.10;;;;;;;;;;10068892;28;20047;-70
2023/06/14 12:20:16;;;;;;;10.32;7.20;;;;;;;;;;10066104;28;20727;-70
2023/06/14 12:25:22;;;;;;;11.95;6.82;;;;;;;;;;10070352;29;20130;-70
2023/06/14 12:30:18;;;;;;;8.77;7.35;;;;;;;;;;10063471;29;20048;-70
2023/06/14 12:35:15;;;;;;;8.77;7.22;;;;;;;;;;10064578;29;20058;-69
2023/06/14 12:40:14;;;;;;;7.93;6.05;;;;;;;;;;10040900;29;20047;-70
2023/06/14 12:45:10;;;;;;;8.98;6.70;;;;;;;;;;10065685;29;20699;-69
2023/06/14 12:50:07;;;;;;;10.43;7.75;;;;;;;;;;10068058;29;20047;-70
2023/06/14 12:55:04;;;;;;;10.07;7.03;;;;;;;;;;10044577;29;20048;-70
2023/06/14 13:00:00;;;;;;;11.25;6.95;;;;;;;;;;10065333;28;20047;-69
2023/06/14 13:04:58;;;;;;;7.47;6.85;;;;;;;;;;10072717;29;20058;-69
2023/06/14 13:09:54;;;;;;;10.55;7.13;;;;;;;;;;10064993;29;20047;-69
2023/06/14 13:14:50;;;;;;;9.38;7.20;;;;;;;;;;10072157;29;20054;-69
2023/06/14 13:19:47;;;;;;;8.48;7.05;;;;;;;;;;10073196;29;20086;-69
2023/06/14 13:24:43;;;;;;;8.60;7.45;;;;;;;;;;10057116;29;20047;-69
2023/06/14 13:29:40;;;;;;;9.82;7.07;;;;;;;;;;10071632;29;20046;-69
2023/06/14 13:34:36;;;;;;;9.93;6.53;;;;;;;;;;10070883;29;20135;-69
2023/06/14 13:39:32;;;;;;;7.57;6.82;;;;;;;;;;10054007;29;20051;-69
2023/06/14 13:44:29;;;;;;;9.63;7.20;;;;;;;;;;10063344;29;20047;-70
2023/06/14 13:49:25;;;;;;;6.63;6.03;;;;;;;;;;10073374;28;20043;-69
2023/06/14 13:54:21;;;;;;;6.70;6.13;;;;;;;;;;10073336;29;20469;-69
2023/06/14 13:59:18;;;;;;;11.82;6.63;;;;;;;;;;10069383;29;20047;-69
2023/06/14 14:04:14;;;;;;;9.63;6.45;;;;;;;;;;10057600;29;20084;-69
2023/06/14 14:09:10;;;;;;;6.93;5.97;;;;;;;;;;10065480;29;20491;-69
2023/06/14 14:14:07;;;;;;;6.90;6.30;;;;;;;;;;10061796;29;20051;-69
2023/06/14 14:19:06;;;;;;;6.43;5.80;;;;;;;;;;10065498;29;20532;-70
2023/06/14 14:24:03;;;;;;;9.15;6.85;;;;;;;;;;10069201;28;20746;-69
2023/06/14 14:28:59;;;;;;;8.68;6.57;;;;;;;;;;10054426;29;20070;-70
2023/06/14 14:33:55;;;;;;;7.80;6.10;;;;;;;;;;10072601;28;20051;-69
2023/06/14 14:38:52;;;;;;;7.45;6.57;;;;;;;;;;10070375;28;20465;-70
2023/06/14 14:43:48;;;;;;;6.70;6.10;;;;;;;;;;10065207;29;20635;-70
2023/06/14 14:48:45;;;;;;;8.48;7.20;;;;;;;;;;10059413;28;20126;-70
2023/06/14 14:53:41;;;;;;;7.70;6.00;;;;;;;;;;10067347;29;20098;-69
2023/06/14 14:58:38;;;;;;;8.70;6.45;;;;;;;;;;10064981;29;20047;-70
2023/06/14 15:03:34;;;;;;;7.75;6.38;;;;;;;;;;10068117;29;20047;-70
2023/06/14 15:08:49;;;;;;;6.00;5.50;;;;;;;;;;10063399;29;20035;-70
2023/06/14 15:13:47;;;;;;;8.57;6.30;;;;;;;;;;10070347;29;20047;-69
2023/06/14 15:18:43;;;;;;;7.03;6.20;;;;;;;;;;10064883;29;20062;-70
2023/06/14 15:23:40;;;;;;;7.13;6.45;;;;;;;;;;10053312;28;20086;-68
2023/06/14 15:28:36;;;;;;;6.88;6.22;;;;;;;;;;10066376;29;20146;-69
2023/06/14 15:33:32;;;;;;;7.05;6.43;;;;;;;;;;10066468;29;20043;-69
2023/06/14 15:38:29;;;;;;;10.38;6.18;;;;;;;;;;10058407;29;20090;-69
2023/06/14 15:43:26;;;;;;;9.05;5.93;;;;;;;;;;10046646;29;20039;-68
2023/06/14 15:48:22;;;;;;;7.13;6.47;;;;;;;;;;10066024;28;20602;-69
2023/06/14 15:53:19;;;;;;;6.85;5.93;;;;;;;;;;10061062;28;20592;-70
2023/06/14 15:58:16;;;;;;;7.70;6.60;;;;;;;;;;10061842;29;20118;-68
2023/06/14 16:03:12;;;;;;;9.43;6.30;;;;;;;;;;10063540;29;20039;-68
2023/06/14 16:08:09;;;;;;;8.20;6.60;;;;;;;;;;10067132;29;20077;-68
2023/06/14 16:13:05;;;;;;;9.55;7.05;;;;;;;;;;10068825;29;20051;-68
2023/06/14 16:18:01;;;;;;;8.05;6.88;;;;;;;;;;10058174;29;20047;-68
2023/06/14 16:22:58;;;;;;;7.30;6.60;;;;;;;;;;10065627;29;20043;-68
2023/06/14 16:27:54;;;;;;;9.10;6.00;;;;;;;;;;10065567;29;20051;-68
2023/06/14 16:32:51;;;;;;;7.97;6.25;;;;;;;;;;10058833;29;20051;-69
2023/06/14 16:37:48;;;;;;;6.72;6.03;;;;;;;;;;10061882;28;20477;-69
2023/06/14 16:42:44;;;;;;;18.25;6.57;;;;;;;;;;10070739;29;20505;-68
2023/06/14 16:47:41;;;;;;;7.82;7.00;;;;;;;;;;10072964;29;20059;-68
2023/06/14 16:52:37;;;;;;;7.63;6.93;;;;;;;;;;10074699;29;20051;-68
2023/06/14 16:57:33;;;;;;;9.02;6.97;;;;;;;;;;10070073;29;20058;-68
2023/06/14 17:02:30;;;;;;;7.57;6.40;;;;;;;;;;10067737;28;20136;-69
2023/06/14 17:07:26;;;;;;;7.68;6.80;;;;;;;;;;10064412;28;20102;-68
2023/06/14 17:12:22;;;;;;;10.60;6.70;;;;;;;;;;10070668;29;20098;-69
2023/06/14 17:17:19;;;;;;;7.97;6.30;;;;;;;;;;10051882;29;20055;-68
2023/06/14 17:22:15;;;;;;;11.13;6.07;;;;;;;;;;10070898;28;20552;-68
2023/06/14 17:27:11;;;;;;;9.63;6.25;;;;;;;;;;10074041;28;20046;-68
2023/06/14 17:32:08;;;;;;;6.80;6.18;;;;;;;;;;10074494;28;20398;-67
2023/06/14 17:37:04;;;;;;;6.95;6.22;;;;;;;;;;10073807;28;20050;-69
2023/06/14 17:42:01;;;;;;;6.50;5.90;;;;;;;;;;10052251;29;20043;-69
2023/06/14 17:46:57;;;;;;;6.63;5.93;;;;;;;;;;10067646;28;20043;-69
2023/06/14 17:51:57;;;;;;;12.68;6.20;;;;;;;;;;10068899;29;20122;-69
2023/06/14 17:56:53;;;;;;;8.98;6.07;;;;;;;;;;10065507;29;20047;-69
2023/06/14 18:01:50;;;;;;;8.30;6.00;;;;;;;;;;10067078;29;20054;-68
2023/06/14 18:06:46;;;;;;;7.43;6.10;;;;;;;;;;10057869;28;20047;-69
2023/06/14 18:11:42;;;;;;;5.65;5.15;;;;;;;;;;10062894;28;20051;-69
2023/06/14 18:16:40;;;;;;;8.63;5.32;;;;;;;;;;10071345;29;20145;-69
2023/06/14 18:21:36;;;;;;;7.07;5.00;;;;;;;;;;10071755;29;20523;-69
2023/06/14 18:26:33;;;;;;;6.03;4.82;;;;;;;;;;10070012;28;20058;-65
2023/06/14 18:31:29;;;;;;;6.30;5.50;;;;;;;;;;10070393;28;20118;-69
2023/06/14 18:36:26;;;;;;;10.07;5.93;;;;;;;;;;10072010;29;20513;-69
2023/06/14 18:41:22;;;;;;;9.77;6.10;;;;;;;;;;10068434;29;20059;-69
2023/06/14 18:46:19;;;;;;;6.40;5.20;;;;;;;;;;10072321;28;20429;-70
2023/06/14 18:51:15;;;;;;;6.20;5.55;;;;;;;;;;10070306;28;20047;-69
2023/06/14 18:56:11;;;;;;;7.78;5.72;;;;;;;;;;10070240;29;20397;-68
2023/06/14 19:01:08;;;;;;;8.27;5.60;;;;;;;;;;10051587;29;20043;-69
2023/06/14 19:06:04;;;;;;;5.40;4.90;;;;;;;;;;10066021;28;20105;-69
2023/06/14 19:11:01;;;;;;;7.38;5.05;;;;;;;;;;10066098;28;20063;-69
2023/06/14 19:15:57;;;;;;;11.05;5.15;;;;;;;;;;10038969;29;20056;-69
2023/06/14 19:20:56;;;;;;;10.13;5.05;;;;;;;;;;10003694;29;20055;-69
2023/06/14 19:25:52;;;;;;;7.35;5.10;;;;;;;;;;10029171;29;20040;-68
2023/06/14 19:30:49;;;;;;;7.35;4.40;;;;;;;;;;10064932;29;20039;-69
2023/06/14 19:35:45;;;;;;;7.15;5.13;;;;;;;;;;10060387;29;20489;-69
2023/06/14 19:40:42;;;;;;;7.43;4.80;;;;;;;;;;10047665;29;20043;-69
2023/06/14 19:45:38;;;;;;;5.13;4.63;;;;;;;;;;10067126;29;20063;-68
2023/06/14 19:50:37;;;;;;;6.72;5.00;;;;;;;;;;10066361;29;20046;-69
2023/06/14 19:55:33;;;;;;;8.43;5.68;;;;;;;;;;10062215;29;20082;-69
2023/06/14 20:00:29;;;;;;;8.23;4.60;;;;;;;;;;10059544;29;20686;-69
2023/06/14 20:05:27;;;;;;;8.25;5.32;;;;;;;;;;10063284;29;20130;-69
2023/06/14 20:10:23;;;;;;;11.80;5.38;;;;;;;;;;10060869;29;20528;-69
2023/06/14 20:15:20;;;;;;;6.60;4.85;;;;;;;;;;10044022;29;20051;-70
2023/06/14 20:20:16;;;;;;;7.78;5.65;;;;;;;;;;10061710;28;20468;-69
2023/06/14 20:25:12;;;;;;;7.30;4.80;;;;;;;;;;10064882;29;20044;-66
2023/06/14 20:30:09;;;;;;;6.93;4.95;;;;;;;;;;10062470;29;20062;-69
2023/06/14 20:35:06;;;;;;;6.45;5.75;;;;;;;;;;10061758;29;20087;-68
2023/06/14 20:40:05;;;;;;;10.07;4.90;;;;;;;;;;10044795;29;20482;-68
2023/06/14 20:45:03;;;;;;;6.78;5.18;;;;;;;;;;10049434;29;20047;-68
2023/06/14 20:50:00;;;;;;;7.13;4.63;;;;;;;;;;10059699;29;20054;-67
2023/06/14 20:54:57;;;;;;;6.40;4.82;;;;;;;;;;10069330;29;20497;-67
2023/06/14 20:59:55;;;;;;;7.35;5.20;;;;;;;;;;10067803;29;20043;-67
2023/06/14 21:04:51;;;;;;;5.22;4.72;;;;;;;;;;10066178;29;20043;-67
2023/06/14 21:09:47;;;;;;;5.82;4.60;;;;;;;;;;10057393;29;20499;-67
2023/06/14 21:14:44;;;;;;;6.80;4.90;;;;;;;;;;10056418;28;20062;-68
2023/06/14 21:19:41;;;;;;;5.70;4.60;;;;;;;;;;10066555;29;20048;-69
2023/06/14 21:24:38;;;;;;;9.60;4.93;;;;;;;;;;10070142;28;20082;-68
2023/06/14 21:29:34;;;;;;;5.53;4.28;;;;;;;;;;10068287;29;20098;-67
2023/06/14 21:34:33;;;;;;;6.90;4.35;;;;;;;;;;10067246;29;20110;-67
2023/06/14 21:39:32;;;;;;;6.50;3.97;;;;;;;;;;10025223;29;20067;-67
2023/06/14 21:44:29;;;;;;;6.65;4.43;;;;;;;;;;10032367;29;20103;-67
2023/06/14 21:49:25;;;;;;;10.88;4.50;;;;;;;;;;10028581;29;20067;-65
2023/06/14 21:54:22;;;;;;;6.95;4.30;;;;;;;;;;10033213;29;20095;-68
2023/06/14 21:59:18;;;;;;;4.75;4.25;;;;;;;;;;10026492;29;21581;-68
2023/06/14 22:04:15;;;;;;;7.35;4.28;;;;;;;;;;10018362;29;20051;-67
2023/06/14 22:09:12;;;;;;;7.55;4.80;;;;;;;;;;10020333;29;20452;-67
2023/06/14 22:14:11;;;;;;;6.35;4.13;;;;;;;;;;10020488;29;20129;-67
2023/06/14 22:19:08;;;;;;;8.65;4.45;;;;;;;;;;10012803;29;20133;-67
2023/06/14 22:24:05;;;;;;;5.13;3.65;;;;;;;;;;10019376;29;20716;-67
2023/06/14 22:29:06;;;;;;;6.10;4.10;;;;;;;;;;10017328;29;20048;-67
2023/06/14 22:34:07;;;;;;;9.13;4.70;;;;;;;;;;10029330;29;20426;-67
2023/06/14 22:39:04;;;;;;;6.30;4.20;;;;;;;;;;10022869;29;20069;-67
2023/06/14 22:44:01;;;;;;;4.70;3.47;;;;;;;;;;10019204;29;21054;-68
2023/06/14 22:48:58;;;;;;;4.85;3.83;;;;;;;;;;10000726;29;20710;-68
2023/06/14 22:53:55;;;;;;;6.40;4.30;;;;;;;;;;10016778;29;20139;-69
2023/06/14 22:58:53;;;;;;;5.38;4.00;;;;;;;;;;10017540;29;20063;-68
2023/06/14 23:03:49;;;;;;;10.27;4.60;;;;;;;;;;10024290;29;20147;-68
2023/06/14 23:08:46;;;;;;;4.95;4.32;;;;;;;;;;10026819;29;20160;-67
2023/06/14 23:13:44;;;;;;;5.75;4.38;;;;;;;;;;10021429;29;20055;-67
2023/06/14 23:18:40;;;;;;;6.05;4.40;;;;;;;;;;10015818;29;20058;-67
2023/06/14 23:23:37;;;;;;;7.57;3.80;;;;;;;;;;10008742;29;20056;-69
2023/06/14 23:28:33;;;;;;;5.80;4.03;;;;;;;;;;10014745;29;20474;-66
2023/06/14 23:33:30;;;;;;;6.93;4.32;;;;;;;;;;10048984;29;20102;-66
2023/06/14 23:38:29;;;;;;;5.68;4.10;;;;;;;;;;10069224;29;20138;-67
2023/06/14 23:43:27;;;;;;;7.95;4.82;;;;;;;;;;10068935;28;20501;-67
2023/06/14 23:48:26;;;;;;;6.57;4.22;;;;;;;;;;10070524;29;20074;-66
2023/06/14 23:53:24;;;;;;;6.97;4.32;;;;;;;;;;10065686;29;21452;-67
2023/06/14 23:58:23;;;;;;;6.13;3.78;;;;;;;;;;10066135;29;20130;-66
